Time;durP1;ratioP1;P1;durP2;ratioP2;P2;SDS_P1;SDS_P2;PMS_P1;PMS_P2;Temp;Humidity;BMP_temperature;BMP_pressure;BME280_temperature;BME280_humidity;BME280_pressure;Samples;Min_cycle;Max_cycle;Signal;HPM_P1;HPM_P2
2021/01/23 00:02:22;;;;;;;13.85;7.95;;;7.20;90.00;;;;;;5053804;28;20107;-69
2021/01/23 00:04:48;;;;;;;11.43;6.95;;;7.20;90.00;;;;;;5053279;28;20373;-69
2021/01/23 00:07:13;;;;;;;10.73;6.50;;;7.20;90.00;;;;;;5053391;28;20107;-69
2021/01/23 00:09:39;;;;;;;10.30;6.55;;;7.20;90.00;;;;;;5054033;28;20025;-68
2021/01/23 00:12:05;;;;;;;11.50;6.60;;;7.10;90.10;;;;;;5053865;28;20032;-67
2021/01/23 00:14:31;;;;;;;11.73;6.88;;;7.10;90.10;;;;;;5052417;28;20060;-67
2021/01/23 00:16:57;;;;;;;14.23;8.25;;;7.10;90.10;;;;;;5053561;28;20059;-68
2021/01/23 00:19:23;;;;;;;12.02;7.30;;;7.00;90.10;;;;;;5061049;28;20516;-67
2021/01/23 00:21:48;;;;;;;13.57;6.82;;;7.00;90.10;;;;;;5053330;28;20025;-67
2021/01/23 00:24:14;;;;;;;11.00;6.13;;;6.90;90.20;;;;;;5053552;28;20033;-67
2021/01/23 00:26:42;;;;;;;12.27;6.32;;;6.80;90.20;;;;;;5053659;28;20750;-67
2021/01/23 00:29:08;;;;;;;14.18;7.00;;;6.80;90.30;;;;;;5071826;28;20033;-66
2021/01/23 00:31:33;;;;;;;17.48;7.90;;;6.90;90.50;;;;;;5073354;28;20499;-67
2021/01/23 00:33:59;;;;;;;15.70;6.80;;;6.90;90.50;;;;;;5063591;28;20128;-68
2021/01/23 00:36:24;;;;;;;14.57;7.78;;;6.90;90.50;;;;;;5053124;28;20036;-67
2021/01/23 00:38:50;;;;;;;17.20;7.25;;;6.90;90.50;;;;;;5068476;28;20056;-69
2021/01/23 00:41:15;;;;;;;15.00;7.97;;;7.00;90.50;;;;;;5060491;28;20024;-68
2021/01/23 00:43:41;;;;;;;17.33;8.35;;;7.00;90.50;;;;;;5070133;28;20132;-68
2021/01/23 00:46:06;;;;;;;12.45;6.95;;;7.00;90.50;;;;;;5072478;28;20070;-69
2021/01/23 00:48:32;;;;;;;11.00;6.60;;;7.00;90.50;;;;;;5069195;28;20381;-69
2021/01/23 00:50:57;;;;;;;12.13;7.10;;;7.10;90.40;;;;;;5066737;28;20029;-69
2021/01/23 00:53:22;;;;;;;12.88;7.22;;;7.00;90.30;;;;;;5053261;28;20408;-69
2021/01/23 00:55:48;;;;;;;15.07;8.15;;;7.10;90.30;;;;;;5052953;28;20017;-69
2021/01/23 00:58:13;;;;;;;12.93;7.07;;;7.10;90.40;;;;;;5051788;28;20527;-68
2021/01/23 01:00:39;;;;;;;13.60;7.85;;;7.10;90.50;;;;;;5066344;28;20056;-68
2021/01/23 01:03:05;;;;;;;13.43;8.02;;;7.20;90.40;;;;;;5052454;28;20492;-68
2021/01/23 01:05:30;;;;;;;11.05;7.10;;;7.20;90.40;;;;;;5051518;28;20033;-68
2021/01/23 01:07:56;;;;;;;16.40;7.55;;;7.20;90.30;;;;;;5053061;28;20034;-68
2021/01/23 01:10:21;;;;;;;13.80;7.25;;;7.20;90.30;;;;;;5053166;28;20024;-70
2021/01/23 01:12:47;;;;;;;11.85;5.90;;;7.30;90.30;;;;;;5052607;28;20029;-69
2021/01/23 01:15:13;;;;;;;14.68;6.85;;;7.30;90.20;;;;;;5052428;28;20029;-69
2021/01/23 01:17:38;;;;;;;13.20;8.00;;;7.30;90.20;;;;;;5052067;28;20022;-69
2021/01/23 01:20:05;;;;;;;11.35;7.22;;;7.30;90.20;;;;;;5052193;28;20572;-69
2021/01/23 01:22:30;;;;;;;11.18;6.72;;;7.30;90.20;;;;;;5054400;28;20029;-70
2021/01/23 01:24:56;;;;;;;12.75;6.15;;;7.30;90.10;;;;;;5052097;28;20496;-70
2021/01/23 01:27:22;;;;;;;14.27;7.15;;;7.30;90.00;;;;;;5052449;28;20036;-70
2021/01/23 01:29:48;;;;;;;12.45;6.75;;;7.30;90.00;;;;;;5052252;28;20487;-70
2021/01/23 01:32:13;;;;;;;12.23;6.65;;;7.30;89.80;;;;;;5052181;28;20033;-70
2021/01/23 01:34:39;;;;;;;13.30;7.88;;;7.40;90.10;;;;;;5060758;28;20020;-70
2021/01/23 01:37:04;;;;;;;10.82;6.88;;;7.40;89.70;;;;;;5064707;28;20139;-69
2021/01/23 01:39:29;;;;;;;12.68;6.72;;;7.40;89.70;;;;;;5058475;28;20123;-69
2021/01/23 01:41:55;;;;;;;14.38;6.80;;;7.30;89.60;;;;;;5075597;28;20538;-69
2021/01/23 01:44:20;;;;;;;11.52;7.00;;;7.40;89.60;;;;;;5071168;28;20048;-69
2021/01/23 01:46:46;;;;;;;14.45;7.63;;;7.40;89.50;;;;;;5070710;28;20461;-69
2021/01/23 01:49:12;;;;;;;12.35;7.07;;;7.30;89.30;;;;;;5067570;28;20048;-69
2021/01/23 01:51:38;;;;;;;14.77;7.22;;;7.40;89.30;;;;;;5071777;28;20029;-69
2021/01/23 01:54:04;;;;;;;14.02;7.38;;;7.40;89.10;;;;;;5063091;28;20040;-69
2021/01/23 01:56:29;;;;;;;14.68;8.20;;;7.40;88.90;;;;;;5052029;28;20055;-69
2021/01/23 01:58:56;;;;;;;12.00;7.28;;;7.50;89.00;;;;;;5054336;28;20128;-69
2021/01/23 02:01:21;;;;;;;14.32;7.97;;;7.40;88.90;;;;;;5072002;28;20038;-69
2021/01/23 02:04:06;;;;;;;14.75;7.90;;;7.40;89.00;;;;;;5064722;28;20493;-70
2021/01/23 02:06:57;;;;;;;15.20;7.57;;;7.40;89.10;;;;;;5051710;28;20043;-69
2021/01/23 02:09:50;;;;;;;15.70;7.72;;;7.40;89.10;;;;;;5052197;28;20036;-69
2021/01/23 02:12:30;;;;;;;10.98;6.82;;;7.40;89.20;;;;;;5051780;28;20021;-69
2021/01/23 02:15:10;;;;;;;12.30;7.28;;;7.40;89.40;;;;;;5056623;28;20035;-69
2021/01/23 02:17:43;;;;;;;11.32;6.82;;;7.30;89.50;;;;;;5051735;28;20098;-69
2021/01/23 02:20:40;;;;;;;11.15;6.53;;;7.40;89.70;;;;;;5050800;28;20035;-68
2021/01/23 02:23:18;;;;;;;13.18;6.60;;;7.30;89.80;;;;;;5051529;28;20045;-69
2021/01/23 02:26:11;;;;;;;9.93;6.00;;;7.30;89.90;;;;;;5051290;28;20040;-69
2021/01/23 02:29:07;;;;;;;11.40;7.10;;;7.30;89.90;;;;;;5052512;28;20100;-69
2021/01/23 02:31:50;;;;;;;10.30;6.95;;;7.20;89.90;;;;;;5051443;28;20036;-68
2021/01/23 02:34:21;;;;;;;13.23;6.32;;;7.20;90.00;;;;;;5051667;28;20075;-69
2021/01/23 02:36:48;;;;;;;11.13;6.05;;;7.10;90.00;;;;;;5051380;28;20063;-69
2021/01/23 02:39:15;;;;;;;13.82;6.68;;;7.10;90.00;;;;;;5053313;28;20059;-69
2021/01/23 02:41:41;;;;;;;10.05;6.28;;;7.10;90.00;;;;;;5064982;28;20060;-68
2021/01/23 02:44:07;;;;;;;10.30;6.80;;;7.00;90.10;;;;;;5054456;28;20540;-68
2021/01/23 02:46:32;;;;;;;12.00;6.63;;;7.00;90.10;;;;;;5051306;28;20564;-69
2021/01/23 02:48:58;;;;;;;10.80;6.40;;;7.00;90.20;;;;;;5052305;28;20536;-69
2021/01/23 02:52:07;;;;;;;10.65;5.95;;;6.90;90.20;;;;;;5071269;28;20063;-68
2021/01/23 02:55:09;;;;;;;9.70;6.38;;;7.00;90.20;;;;;;5052936;28;20508;-69
2021/01/23 02:57:38;;;;;;;9.30;6.63;;;6.90;90.20;;;;;;5024570;28;20417;-69
2021/01/23 03:00:07;;;;;;;11.13;6.57;;;6.90;90.30;;;;;;5058944;28;20393;-70
2021/01/23 03:02:36;;;;;;;9.02;6.13;;;6.90;90.30;;;;;;5050946;28;20013;-70
2021/01/23 03:05:02;;;;;;;11.43;6.25;;;6.80;90.40;;;;;;5055504;28;20033;-70
2021/01/23 03:07:28;;;;;;;11.75;6.53;;;6.80;90.40;;;;;;5054588;28;20048;-70
2021/01/23 03:09:53;;;;;;;11.02;6.25;;;6.80;90.40;;;;;;5055245;28;20470;-69
2021/01/23 03:12:19;;;;;;;10.18;6.20;;;6.80;90.40;;;;;;5054893;28;20032;-70
2021/01/23 03:14:44;;;;;;;11.93;6.32;;;6.70;90.40;;;;;;5054900;28;20029;-69
2021/01/23 03:17:10;;;;;;;13.50;6.65;;;6.70;90.40;;;;;;5055160;28;20025;-69
2021/01/23 03:19:36;;;;;;;11.00;6.97;;;6.80;90.50;;;;;;5054122;28;20060;-69
2021/01/23 03:22:01;;;;;;;12.10;6.50;;;6.70;90.40;;;;;;5067791;28;20033;-69
2021/01/23 03:24:27;;;;;;;11.02;6.72;;;6.70;90.40;;;;;;5072467;28;20384;-70
2021/01/23 03:26:52;;;;;;;12.00;6.90;;;6.70;90.50;;;;;;5061920;28;20095;-68
2021/01/23 03:29:18;;;;;;;10.13;6.47;;;6.60;90.70;;;;;;5054086;28;20707;-69
2021/01/23 03:31:45;;;;;;;10.35;6.22;;;6.70;90.50;;;;;;5059366;28;20052;-70
2021/01/23 03:34:12;;;;;;;9.90;5.88;;;6.70;90.50;;;;;;5069356;28;20381;-70
2021/01/23 03:36:38;;;;;;;10.32;6.50;;;6.70;90.50;;;;;;5054538;28;20029;-69
2021/01/23 03:39:05;;;;;;;12.80;6.90;;;6.70;90.50;;;;;;5056386;28;20116;-69
2021/01/23 03:41:31;;;;;;;12.63;7.22;;;6.70;90.60;;;;;;5054100;28;20040;-68
2021/01/23 03:43:56;;;;;;;8.13;5.85;;;6.80;90.60;;;;;;5052764;28;20475;-70
2021/01/23 03:46:22;;;;;;;12.73;6.55;;;6.80;90.60;;;;;;5054405;28;20116;-69
2021/01/23 03:48:47;;;;;;;13.02;7.55;;;6.80;90.60;;;;;;5054708;28;20075;-69
2021/01/23 03:51:13;;;;;;;11.93;6.93;;;6.80;90.60;;;;;;5054531;28;20028;-68
2021/01/23 03:53:38;;;;;;;13.52;6.65;;;6.80;90.60;;;;;;5053783;28;20071;-68
2021/01/23 03:56:04;;;;;;;10.98;6.90;;;6.80;90.60;;;;;;5053334;28;20061;-69
2021/01/23 03:58:30;;;;;;;12.85;6.90;;;6.80;90.60;;;;;;5054160;28;20507;-69
2021/01/23 04:00:55;;;;;;;10.43;6.43;;;6.80;90.70;;;;;;5054315;28;20087;-69
2021/01/23 04:03:20;;;;;;;12.35;6.82;;;6.80;90.70;;;;;;5053948;28;20513;-69
2021/01/23 04:05:46;;;;;;;12.23;6.78;;;6.80;90.70;;;;;;5054009;28;20025;-69
2021/01/23 04:08:11;;;;;;;12.25;6.53;;;6.80;90.60;;;;;;5054630;28;20119;-69
2021/01/23 04:10:37;;;;;;;12.43;7.07;;;6.80;90.60;;;;;;5054853;28;20116;-68
2021/01/23 04:13:03;;;;;;;10.63;7.30;;;6.80;90.70;;;;;;5053918;28;20021;-68
2021/01/23 04:15:29;;;;;;;11.73;6.95;;;6.80;90.60;;;;;;5053547;28;20362;-69
2021/01/23 04:17:54;;;;;;;10.55;7.28;;;6.80;90.60;;;;;;5053630;28;20111;-69
2021/01/23 04:20:20;;;;;;;14.20;7.30;;;6.80;90.70;;;;;;5064078;28;20032;-68
2021/01/23 04:22:46;;;;;;;9.77;6.90;;;6.80;90.70;;;;;;5071979;28;20085;-68
2021/01/23 04:25:12;;;;;;;11.75;6.65;;;6.80;90.70;;;;;;5060226;28;20059;-69
2021/01/23 04:27:39;;;;;;;11.57;6.70;;;6.80;90.70;;;;;;5052087;28;20029;-68
2021/01/23 04:30:06;;;;;;;9.93;6.82;;;6.80;90.70;;;;;;5053480;28;20051;-69
2021/01/23 04:32:32;;;;;;;11.00;6.13;;;6.80;90.70;;;;;;5053536;28;20082;-69
2021/01/23 04:34:57;;;;;;;11.07;6.95;;;6.80;90.70;;;;;;5059656;28;20021;-69
2021/01/23 04:37:23;;;;;;;11.27;6.78;;;6.80;90.70;;;;;;5072843;28;20394;-69
2021/01/23 04:39:48;;;;;;;13.15;7.18;;;6.80;90.70;;;;;;5052590;28;20125;-69
2021/01/23 04:42:14;;;;;;;10.30;6.93;;;6.80;90.70;;;;;;5053152;28;20021;-69
2021/01/23 04:44:40;;;;;;;12.13;7.28;;;6.70;90.70;;;;;;5059844;28;20064;-69
2021/01/23 04:47:05;;;;;;;11.88;7.03;;;6.80;90.80;;;;;;5073287;28;20042;-68
2021/01/23 04:49:32;;;;;;;13.65;6.95;;;6.70;90.70;;;;;;5057637;28;20025;-68
2021/01/23 04:52:02;;;;;;;11.00;7.40;;;6.80;90.80;;;;;;5053044;28;20033;-68
2021/01/23 04:54:28;;;;;;;11.00;7.03;;;6.80;90.70;;;;;;5061634;28;20029;-69
2021/01/23 04:56:53;;;;;;;11.35;7.13;;;6.80;90.70;;;;;;5052749;28;20493;-69
2021/01/23 04:59:19;;;;;;;11.65;6.97;;;6.80;90.60;;;;;;5051841;28;20092;-69
2021/01/23 05:02:23;;;;;;;13.65;7.45;;;6.80;90.60;;;;;;5053145;28;20040;-69
2021/01/23 05:04:56;;;;;;;11.95;6.70;;;6.80;90.60;;;;;;5059443;28;20056;-69
2021/01/23 05:07:33;;;;;;;10.88;7.10;;;6.80;90.60;;;;;;5072181;28;20144;-69
2021/01/23 05:10:11;;;;;;;12.55;7.28;;;6.80;90.60;;;;;;5061448;28;20570;-68
2021/01/23 05:12:39;;;;;;;12.02;6.55;;;6.80;90.60;;;;;;5052918;28;20025;-68
2021/01/23 05:15:09;;;;;;;11.77;6.93;;;6.70;90.80;;;;;;5051471;28;20040;-69
2021/01/23 05:17:49;;;;;;;13.48;7.20;;;6.80;90.50;;;;;;5052663;28;20075;-68
2021/01/23 05:20:34;;;;;;;13.05;7.32;;;6.70;90.50;;;;;;5063587;28;20036;-68
2021/01/23 05:23:12;;;;;;;12.00;7.15;;;6.70;90.50;;;;;;5052718;28;20040;-69
2021/01/23 05:25:39;;;;;;;12.48;6.57;;;6.70;90.50;;;;;;5051565;28;20033;-68
2021/01/23 05:28:06;;;;;;;13.30;7.20;;;6.70;90.50;;;;;;5052274;28;20033;-69
2021/01/23 05:30:52;;;;;;;14.85;7.50;;;6.60;90.50;;;;;;5066387;28;20029;-68
2021/01/23 05:33:21;;;;;;;13.18;7.20;;;6.70;90.50;;;;;;5072547;28;20033;-69
2021/01/23 05:36:08;;;;;;;11.05;6.80;;;6.60;90.50;;;;;;5054344;28;20063;-69
2021/01/23 05:38:41;;;;;;;12.20;7.22;;;6.60;90.60;;;;;;5054043;28;20104;-69
2021/01/23 05:41:08;;;;;;;13.90;7.97;;;6.60;90.60;;;;;;5070540;28;20032;-69
2021/01/23 05:43:39;;;;;;;13.18;8.23;;;6.60;90.60;;;;;;5072151;28;20032;-69
2021/01/23 05:46:10;;;;;;;11.98;7.65;;;6.60;90.60;;;;;;5067537;28;20101;-69
2021/01/23 05:48:46;;;;;;;12.05;7.97;;;6.60;90.70;;;;;;5071544;28;20029;-69
2021/01/23 05:51:13;;;;;;;16.85;7.95;;;6.60;90.70;;;;;;5067296;28;20542;-69
2021/01/23 05:53:39;;;;;;;16.88;8.90;;;6.50;90.70;;;;;;5050779;28;20116;-69
2021/01/23 05:56:05;;;;;;;24.08;10.50;;;6.50;90.70;;;;;;5069929;28;20188;-68
2021/01/23 05:58:33;;;;;;;19.00;9.05;;;6.50;90.90;;;;;;5071262;28;20028;-68
2021/01/23 06:01:00;;;;;;;16.10;8.50;;;6.50;90.60;;;;;;5052467;28;20041;-68
2021/01/23 06:03:32;;;;;;;12.88;8.02;;;6.50;90.70;;;;;;5051631;28;20033;-68
2021/01/23 06:05:57;;;;;;;17.08;8.18;;;6.50;90.70;;;;;;5051392;28;20087;-68
2021/01/23 06:08:42;;;;;;;12.38;7.30;;;6.40;90.70;;;;;;5051731;28;20383;-68
2021/01/23 06:11:20;;;;;;;13.40;7.45;;;6.50;90.70;;;;;;5050915;28;20381;-68
2021/01/23 06:13:53;;;;;;;12.93;7.82;;;6.50;90.70;;;;;;5066468;28;20040;-68
2021/01/23 06:16:36;;;;;;;13.82;8.45;;;6.50;90.80;;;;;;5051718;28;20052;-68
2021/01/23 06:19:05;;;;;;;13.20;8.25;;;6.50;90.80;;;;;;5052222;28;20117;-68
2021/01/23 06:21:42;;;;;;;15.48;8.00;;;6.40;90.80;;;;;;5070922;28;20078;-68
2021/01/23 06:24:09;;;;;;;14.68;9.30;;;6.50;90.80;;;;;;5066413;28;20025;-67
2021/01/23 06:26:55;;;;;;;14.23;8.50;;;6.50;90.80;;;;;;5051739;28;20029;-68
2021/01/23 06:29:40;;;;;;;16.27;8.40;;;6.50;90.80;;;;;;5044118;28;20037;-67
2021/01/23 06:32:12;;;;;;;13.57;8.18;;;6.60;90.70;;;;;;5051852;28;20444;-67
2021/01/23 06:34:53;;;;;;;14.13;8.25;;;6.60;90.70;;;;;;5057631;28;20031;-68
2021/01/23 06:37:30;;;;;;;13.63;7.80;;;6.60;90.70;;;;;;5051573;28;20021;-68
2021/01/23 06:39:55;;;;;;;13.88;7.75;;;6.60;90.70;;;;;;5051390;28;20102;-67
2021/01/23 06:42:22;;;;;;;13.80;7.55;;;6.70;90.70;;;;;;5051682;28;20025;-68
2021/01/23 06:44:47;;;;;;;13.07;7.18;;;6.70;90.60;;;;;;5055937;28;20067;-68
2021/01/23 06:47:12;;;;;;;14.27;8.23;;;6.70;90.60;;;;;;5070743;28;20033;-68
2021/01/23 06:49:42;;;;;;;15.73;8.43;;;6.70;90.60;;;;;;5067644;28;20063;-68
2021/01/23 06:52:07;;;;;;;14.57;8.32;;;6.80;90.70;;;;;;5070399;28;20047;-69
2021/01/23 06:54:34;;;;;;;13.50;7.80;;;6.80;90.60;;;;;;5062273;28;20513;-69
2021/01/23 06:57:02;;;;;;;13.75;8.25;;;6.80;90.60;;;;;;5071277;28;20664;-68
2021/01/23 06:59:33;;;;;;;12.32;7.50;;;6.80;90.60;;;;;;5060452;28;20032;-69
2021/01/23 07:02:14;;;;;;;13.13;8.00;;;6.90;90.60;;;;;;5051157;28;20029;-69
2021/01/23 07:04:47;;;;;;;11.68;7.00;;;7.00;90.50;;;;;;5054797;28;20103;-69
2021/01/23 07:07:14;;;;;;;13.55;7.65;;;7.00;90.50;;;;;;5051364;28;20029;-69
2021/01/23 07:09:48;;;;;;;11.48;7.57;;;7.00;90.50;;;;;;5059157;28;20025;-69
2021/01/23 07:12:35;;;;;;;16.65;8.32;;;7.10;90.50;;;;;;5070940;28;20025;-69
2021/01/23 07:15:06;;;;;;;19.85;7.60;;;7.20;90.40;;;;;;5059328;28;20071;-70
2021/01/23 07:17:40;;;;;;;14.48;7.70;;;7.20;90.40;;;;;;5051048;28;20385;-68
2021/01/23 07:20:11;;;;;;;15.02;8.73;;;7.20;90.40;;;;;;5050552;28;20110;-69
2021/01/23 07:22:38;;;;;;;14.23;8.07;;;7.10;90.40;;;;;;5051661;28;20047;-69
2021/01/23 07:25:06;;;;;;;16.85;8.52;;;7.10;90.40;;;;;;5050267;28;20497;-69
2021/01/23 07:27:32;;;;;;;15.18;9.23;;;7.10;90.50;;;;;;5050919;28;20112;-69
2021/01/23 07:29:57;;;;;;;14.70;7.90;;;7.10;90.60;;;;;;5049832;28;20029;-69
2021/01/23 07:32:23;;;;;;;18.15;8.48;;;7.10;90.70;;;;;;5059437;28;20404;-68
2021/01/23 07:35:01;;;;;;;11.15;6.82;;;7.10;90.70;;;;;;5061343;28;20108;-67
2021/01/23 07:37:48;;;;;;;12.38;6.60;;;7.00;90.60;;;;;;5057817;28;20033;-67
2021/01/23 07:40:26;;;;;;;10.73;6.15;;;7.00;90.70;;;;;;5050282;28;20041;-67
2021/01/23 07:42:52;;;;;;;15.38;6.72;;;6.90;91.00;;;;;;5063155;28;20538;-68
2021/01/23 07:45:20;;;;;;;14.57;7.03;;;6.80;91.10;;;;;;5056818;28;20077;-67
2021/01/23 07:48:03;;;;;;;15.68;7.53;;;6.90;91.10;;;;;;5049516;28;20021;-67
2021/01/23 07:50:44;;;;;;;15.55;8.25;;;6.80;91.00;;;;;;5066197;28;20031;-67
2021/01/23 07:53:19;;;;;;;14.05;8.18;;;6.70;91.40;;;;;;5054323;28;20029;-68
2021/01/23 07:55:46;;;;;;;15.63;8.57;;;6.70;91.60;;;;;;5053835;28;20055;-67
2021/01/23 07:58:12;;;;;;;14.77;9.23;;;6.70;91.70;;;;;;5054317;28;20484;-67
2021/01/23 08:00:39;;;;;;;13.38;7.57;;;6.60;91.90;;;;;;5063332;28;20036;-67
2021/01/23 08:03:05;;;;;;;15.60;7.85;;;6.60;92.00;;;;;;5074001;28;20101;-67
2021/01/23 08:05:49;;;;;;;16.08;8.70;;;6.60;92.10;;;;;;5064350;28;20029;-68
2021/01/23 08:08:34;;;;;;;15.85;8.80;;;6.60;92.10;;;;;;5054097;28;20112;-67
2021/01/23 08:11:00;;;;;;;13.15;8.20;;;6.50;92.20;;;;;;5065392;28;20041;-68
2021/01/23 08:13:28;;;;;;;15.98;8.63;;;6.50;92.10;;;;;;5065394;28;20029;-67
2021/01/23 08:16:14;;;;;;;15.07;8.95;;;6.40;92.20;;;;;;5054169;28;20029;-65
2021/01/23 08:18:40;;;;;;;16.48;7.82;;;6.40;92.20;;;;;;5053480;28;20187;-67
2021/01/23 08:21:20;;;;;;;17.13;8.10;;;6.30;92.20;;;;;;5052343;28;20554;-67
2021/01/23 08:23:48;;;;;;;14.50;9.00;;;6.20;92.20;;;;;;5053188;28;20028;-67
2021/01/23 08:26:16;;;;;;;16.40;8.82;;;6.20;92.50;;;;;;5053829;28;20389;-70
2021/01/23 08:28:47;;;;;;;16.02;8.48;;;6.10;92.60;;;;;;5061337;28;20032;-70
2021/01/23 08:31:20;;;;;;;18.83;9.43;;;6.10;92.70;;;;;;5053468;28;20025;-71
2021/01/23 08:33:54;;;;;;;15.27;8.95;;;6.10;92.80;;;;;;5064432;28;20025;-69
2021/01/23 08:36:24;;;;;;;13.27;8.13;;;6.00;92.90;;;;;;5053419;28;20155;-68
2021/01/23 08:39:04;;;;;;;16.50;9.10;;;6.00;93.00;;;;;;5054526;28;20044;-68
2021/01/23 08:41:30;;;;;;;13.80;8.32;;;6.00;93.20;;;;;;5069205;28;20416;-68
2021/01/23 08:43:56;;;;;;;18.95;8.98;;;6.00;93.10;;;;;;5069682;28;20131;-68
2021/01/23 08:46:21;;;;;;;16.58;8.52;;;6.00;93.10;;;;;;5053260;28;20068;-69
2021/01/23 08:48:48;;;;;;;23.52;9.95;;;5.90;93.30;;;;;;5059663;28;20106;-69
2021/01/23 08:51:14;;;;;;;19.48;8.38;;;5.90;93.50;;;;;;5053101;28;20029;-68
2021/01/23 08:53:39;;;;;;;16.02;8.45;;;5.80;93.50;;;;;;5052759;28;20031;-68
2021/01/23 08:56:05;;;;;;;17.42;9.55;;;5.80;93.70;;;;;;5054461;28;20478;-68
2021/01/23 08:58:30;;;;;;;19.83;9.00;;;5.80;93.80;;;;;;5067470;28;20039;-69
2021/01/23 09:00:56;;;;;;;17.48;8.20;;;5.80;94.10;;;;;;5053173;28;20398;-69
2021/01/23 09:03:21;;;;;;;19.42;8.32;;;5.80;94.00;;;;;;5063620;28;20032;-68
2021/01/23 09:05:47;;;;;;;14.45;8.05;;;5.90;94.10;;;;;;5053342;28;20029;-68
2021/01/23 09:08:12;;;;;;;13.02;6.20;;;5.90;94.30;;;;;;5071887;28;20048;-69
2021/01/23 09:10:38;;;;;;;13.38;7.50;;;5.90;94.00;;;;;;5056635;28;20112;-69
2021/01/23 09:13:04;;;;;;;13.95;7.15;;;6.00;94.10;;;;;;5052889;28;20025;-69
2021/01/23 09:15:29;;;;;;;18.30;8.43;;;6.00;94.00;;;;;;5053539;28;20474;-69
2021/01/23 09:17:54;;;;;;;18.33;8.15;;;6.00;94.10;;;;;;5052804;28;20389;-68
2021/01/23 09:20:20;;;;;;;17.10;9.05;;;6.00;94.30;;;;;;5053161;28;20032;-70
2021/01/23 09:22:45;;;;;;;13.90;8.07;;;6.00;94.20;;;;;;5051117;28;20085;-68
2021/01/23 09:25:11;;;;;;;14.70;7.53;;;5.90;94.30;;;;;;5052296;28;20535;-72
2021/01/23 09:27:37;;;;;;;13.57;7.70;;;5.90;94.20;;;;;;5051988;28;20028;-71
2021/01/23 09:30:03;;;;;;;17.13;9.07;;;5.90;94.40;;;;;;5058992;28;20048;-68
2021/01/23 09:32:29;;;;;;;20.92;10.60;;;5.80;94.40;;;;;;5065416;28;20074;-69
2021/01/23 09:34:54;;;;;;;19.38;9.05;;;5.70;94.50;;;;;;5061826;28;20026;-69
2021/01/23 09:37:23;;;;;;;17.83;9.45;;;5.70;94.50;;;;;;5052145;28;20451;-69
2021/01/23 09:39:49;;;;;;;15.88;8.80;;;5.70;94.50;;;;;;5052786;28;20063;-70
2021/01/23 09:42:14;;;;;;;17.38;9.95;;;5.80;94.30;;;;;;5064480;28;20417;-69
2021/01/23 09:44:40;;;;;;;21.02;9.90;;;5.80;94.40;;;;;;5053441;28;20040;-69
2021/01/23 09:47:05;;;;;;;20.40;10.30;;;5.80;94.50;;;;;;5054221;28;20230;-69
2021/01/23 09:49:30;;;;;;;18.63;10.27;;;5.70;94.50;;;;;;5053087;28;20024;-69
2021/01/23 09:51:56;;;;;;;17.08;10.30;;;5.80;94.60;;;;;;5067168;28;20388;-70
2021/01/23 09:54:21;;;;;;;19.38;11.07;;;5.80;94.60;;;;;;5055675;28;20116;-71
2021/01/23 09:56:47;;;;;;;21.70;11.07;;;5.80;94.50;;;;;;5059632;28;20016;-71
2021/01/23 09:59:13;;;;;;;18.92;11.27;;;5.80;94.60;;;;;;5054460;28;20028;-71
2021/01/23 10:01:38;;;;;;;21.05;12.05;;;5.80;94.70;;;;;;5062858;28;20054;-71
2021/01/23 10:04:04;;;;;;;18.63;10.88;;;5.80;94.70;;;;;;5068506;28;20021;-71
2021/01/23 10:06:29;;;;;;;19.70;10.88;;;5.80;94.90;;;;;;5051114;28;20033;-70
2021/01/23 10:08:55;;;;;;;20.98;11.25;;;5.80;94.90;;;;;;5051213;28;20120;-70
2021/01/23 10:11:22;;;;;;;19.33;11.52;;;5.80;94.90;;;;;;5070082;28;20024;-71
2021/01/23 10:13:48;;;;;;;18.50;11.00;;;5.80;94.90;;;;;;5068865;28;20016;-71
2021/01/23 10:16:13;;;;;;;21.42;11.35;;;5.80;94.90;;;;;;5065851;28;20040;-71
2021/01/23 10:18:39;;;;;;;20.10;11.25;;;5.80;94.90;;;;;;5053272;28;20028;-71
2021/01/23 10:21:05;;;;;;;21.20;12.10;;;5.80;94.80;;;;;;5054150;28;20071;-70
2021/01/23 10:23:31;;;;;;;25.35;12.60;;;5.80;95.00;;;;;;5050061;28;20029;-71
2021/01/23 10:25:57;;;;;;;17.65;10.95;;;5.80;95.00;;;;;;5062175;28;20029;-70
2021/01/23 10:28:23;;;;;;;25.13;11.55;;;5.90;95.10;;;;;;5049943;28;20112;-71
2021/01/23 10:30:49;;;;;;;19.33;11.57;;;5.90;95.00;;;;;;5051085;28;20017;-71
2021/01/23 10:33:14;;;;;;;23.58;13.35;;;5.90;94.90;;;;;;5051193;28;20029;-71
2021/01/23 10:35:40;;;;;;;20.35;11.32;;;5.90;95.00;;;;;;5052587;28;20021;-71
2021/01/23 10:38:05;;;;;;;20.63;11.25;;;5.90;94.90;;;;;;5052098;28;20111;-71
2021/01/23 10:40:31;;;;;;;18.30;10.63;;;5.90;95.10;;;;;;5050944;28;20037;-71
2021/01/23 10:42:56;;;;;;;15.50;10.38;;;5.90;95.00;;;;;;5051264;28;20074;-69
2021/01/23 10:45:22;;;;;;;17.52;10.93;;;5.80;95.00;;;;;;5056756;28;20090;-68
2021/01/23 10:47:47;;;;;;;18.45;9.95;;;5.90;95.00;;;;;;5052462;28;20025;-70
2021/01/23 10:50:13;;;;;;;20.08;10.27;;;5.80;95.00;;;;;;5062851;28;20012;-70
2021/01/23 10:52:39;;;;;;;19.67;10.88;;;5.80;95.10;;;;;;5064322;28;20478;-70
2021/01/23 10:55:05;;;;;;;20.90;10.60;;;5.80;95.20;;;;;;5056624;28;20026;-69
2021/01/23 10:57:30;;;;;;;15.45;9.43;;;5.80;95.30;;;;;;5051735;28;20037;-69
2021/01/23 10:59:56;;;;;;;17.15;11.10;;;5.80;95.20;;;;;;5056841;28;20032;-69
2021/01/23 11:02:21;;;;;;;17.98;9.77;;;5.80;95.30;;;;;;5052959;28;20350;-70
2021/01/23 11:04:47;;;;;;;19.48;10.88;;;5.70;95.50;;;;;;5056917;28;20028;-70
2021/01/23 11:07:13;;;;;;;19.88;11.90;;;5.70;95.30;;;;;;5070246;28;20585;-70
2021/01/23 11:09:38;;;;;;;18.95;11.00;;;5.70;95.40;;;;;;5062432;28;20086;-70
2021/01/23 11:12:05;;;;;;;15.63;9.82;;;5.70;95.50;;;;;;5051492;28;20032;-70
2021/01/23 11:14:30;;;;;;;22.55;11.57;;;5.80;95.50;;;;;;5050546;28;20163;-70
2021/01/23 11:16:55;;;;;;;18.98;9.80;;;5.80;95.70;;;;;;5053727;28;20104;-69
2021/01/23 11:19:21;;;;;;;12.88;7.82;;;5.80;95.50;;;;;;5060753;28;20036;-70
2021/01/23 11:21:47;;;;;;;16.50;9.48;;;5.80;95.40;;;;;;5050434;28;20040;-70
2021/01/23 11:24:12;;;;;;;18.90;8.30;;;5.80;95.50;;;;;;5051360;28;20143;-70
2021/01/23 11:26:38;;;;;;;16.63;8.63;;;5.80;95.70;;;;;;5054641;28;20017;-70
2021/01/23 11:29:03;;;;;;;16.23;7.85;;;5.80;95.60;;;;;;5054791;28;20040;-71
2021/01/23 11:31:28;;;;;;;14.30;8.05;;;5.80;95.60;;;;;;5054109;28;20025;-71
2021/01/23 11:33:54;;;;;;;13.82;5.97;;;5.80;95.60;;;;;;5054387;28;20032;-71
2021/01/23 11:36:20;;;;;;;9.43;5.80;;;5.80;95.60;;;;;;5059251;28;20021;-69
2021/01/23 11:38:46;;;;;;;12.02;5.75;;;5.90;95.50;;;;;;5053203;28;20036;-70
2021/01/23 11:41:11;;;;;;;10.68;4.85;;;5.80;95.50;;;;;;5055348;28;20036;-69
2021/01/23 11:43:37;;;;;;;11.43;5.03;;;5.80;95.50;;;;;;5068472;28;20119;-70
2021/01/23 11:46:03;;;;;;;9.70;5.63;;;5.80;95.60;;;;;;5065446;28;20525;-70
2021/01/23 11:48:30;;;;;;;9.45;4.78;;;5.80;95.70;;;;;;5073369;28;20107;-69
2021/01/23 11:50:56;;;;;;;8.60;4.38;;;5.80;95.70;;;;;;5055207;28;20083;-69
2021/01/23 11:53:22;;;;;;;12.35;4.20;;;5.80;95.70;;;;;;5053578;28;20052;-70
2021/01/23 11:55:49;;;;;;;14.77;4.78;;;5.90;95.80;;;;;;5055315;28;20473;-70
2021/01/23 11:58:14;;;;;;;12.43;4.70;;;5.90;95.70;;;;;;5059086;28;20036;-71
2021/01/23 12:00:40;;;;;;;10.27;4.53;;;5.90;95.80;;;;;;5064442;28;20029;-71
2021/01/23 12:03:05;;;;;;;13.60;4.70;;;5.90;95.80;;;;;;5054104;28;20025;-71
2021/01/23 12:05:33;;;;;;;9.05;3.95;;;6.00;95.80;;;;;;5056157;28;20141;-70
2021/01/23 12:07:58;;;;;;;12.88;4.70;;;6.00;95.70;;;;;;5053225;28;20021;-70
2021/01/23 12:10:24;;;;;;;10.07;5.10;;;6.00;95.60;;;;;;5060606;28;20035;-69
2021/01/23 12:12:50;;;;;;;12.80;5.80;;;6.00;95.60;;;;;;5055132;28;20025;-71
2021/01/23 12:15:16;;;;;;;12.45;5.22;;;6.10;95.50;;;;;;5053897;28;20144;-70
2021/01/23 12:17:43;;;;;;;13.75;5.10;;;6.10;95.60;;;;;;5053904;28;20021;-70
2021/01/23 12:20:10;;;;;;;12.45;5.32;;;6.10;95.50;;;;;;5053826;28;20041;-71
2021/01/23 12:22:39;;;;;;;11.65;5.05;;;6.10;95.40;;;;;;5053517;28;20029;-71
2021/01/23 12:25:06;;;;;;;12.18;5.65;;;6.10;95.50;;;;;;5052970;28;20036;-71
2021/01/23 12:27:31;;;;;;;11.05;5.00;;;6.10;95.70;;;;;;5053722;28;20053;-69
2021/01/23 12:29:57;;;;;;;14.43;6.20;;;6.20;95.70;;;;;;5062570;28;20051;-71
2021/01/23 12:32:23;;;;;;;11.90;5.75;;;6.20;95.60;;;;;;5073331;28;20481;-70
2021/01/23 12:34:49;;;;;;;13.40;5.60;;;6.40;95.70;;;;;;5070202;28;20015;-71
2021/01/23 12:37:14;;;;;;;13.32;5.38;;;6.40;95.70;;;;;;5072242;28;20060;-71
2021/01/23 12:39:39;;;;;;;16.77;6.18;;;6.40;95.60;;;;;;5064518;28;20058;-73
2021/01/23 12:42:06;;;;;;;13.45;5.88;;;6.50;95.50;;;;;;5053745;28;20025;-72
2021/01/23 12:44:32;;;;;;;17.63;6.80;;;6.60;95.50;;;;;;5053004;28;20048;-72
2021/01/23 12:46:58;;;;;;;16.92;7.32;;;6.70;95.50;;;;;;5053240;28;20393;-72
2021/01/23 12:49:23;;;;;;;15.35;6.43;;;6.70;95.40;;;;;;5056596;28;20021;-72
2021/01/23 12:51:49;;;;;;;14.77;7.13;;;6.80;95.30;;;;;;5060372;28;20074;-71
2021/01/23 12:54:14;;;;;;;12.75;7.63;;;6.80;95.20;;;;;;5052904;28;20048;-71